createdAt,value
2023-05-24T00:00:18.831Z,11.90
2023-05-24T00:02:46.436Z,11.90
2023-05-24T00:05:16.607Z,11.90
2023-05-24T00:07:43.695Z,12.10
2023-05-24T00:10:11.724Z,11.80
2023-05-24T00:12:38.744Z,11.70
2023-05-24T00:15:06.639Z,11.70
2023-05-24T00:17:41.108Z,11.70
2023-05-24T00:20:13.791Z,11.70
2023-05-24T00:22:42.022Z,11.60
2023-05-24T00:25:09.515Z,11.90
2023-05-24T00:27:37.340Z,11.60
2023-05-24T00:30:06.300Z,11.60
2023-05-24T00:32:33.585Z,11.50
2023-05-24T00:35:00.826Z,11.50
2023-05-24T00:37:29.432Z,11.50
2023-05-24T00:39:57.782Z,11.40
2023-05-24T00:42:24.921Z,11.40
2023-05-24T00:44:51.971Z,11.40
2023-05-24T00:47:19.512Z,11.30
2023-05-24T00:49:46.879Z,11.30
2023-05-24T00:52:14.219Z,11.30
2023-05-24T00:54:41.237Z,11.20
2023-05-24T00:57:08.598Z,11.20
2023-05-24T00:59:36.604Z,11.10
2023-05-24T01:02:05.300Z,11.10
2023-05-24T01:04:33.189Z,11.10
2023-05-24T01:07:37.921Z,11.00
2023-05-24T01:10:32.032Z,11.00
2023-05-24T01:13:38.829Z,10.90
2023-05-24T01:16:11.962Z,10.90
2023-05-24T01:18:54.971Z,10.90
2023-05-24T01:21:56.180Z,10.80
2023-05-24T01:25:07.332Z,10.80
2023-05-24T01:27:38.549Z,10.70
2023-05-24T01:30:07.184Z,10.70
2023-05-24T01:32:34.707Z,10.70
2023-05-24T01:35:01.807Z,10.70
2023-05-24T01:37:28.839Z,10.60
2023-05-24T01:39:56.109Z,10.60
2023-05-24T01:42:33.676Z,10.60
2023-05-24T01:45:33.833Z,10.50
2023-05-24T01:48:19.543Z,10.50
2023-05-24T01:50:54.458Z,10.50
2023-05-24T01:53:26.324Z,10.50
2023-05-24T01:55:58.796Z,10.40
2023-05-24T01:58:27.624Z,10.40
2023-05-24T02:00:55.752Z,10.80
2023-05-24T02:03:22.888Z,10.40
2023-05-24T02:05:50.026Z,10.40
2023-05-24T02:08:17.127Z,10.30
2023-05-24T02:10:45.590Z,10.30
2023-05-24T02:13:12.732Z,10.40
2023-05-24T02:15:41.886Z,10.30
2023-05-24T02:18:13.075Z,10.30
2023-05-24T02:20:40.739Z,10.40
2023-05-24T02:23:08.044Z,10.30
2023-05-24T02:25:37.330Z,10.30
2023-05-24T02:28:04.318Z,10.20
2023-05-24T02:30:31.331Z,10.20
2023-05-24T02:32:58.450Z,10.20
2023-05-24T02:35:25.870Z,10.20
2023-05-24T02:37:53.129Z,10.10
2023-05-24T02:40:20.286Z,10.10
2023-05-24T02:42:48.078Z,10.10
2023-05-24T02:45:15.162Z,10.00
2023-05-24T02:47:42.264Z,10.00
2023-05-24T02:50:10.389Z,9.90
2023-05-24T02:52:37.414Z,9.90
2023-05-24T02:55:06.185Z,9.80
2023-05-24T02:57:34.175Z,9.80
2023-05-24T03:00:01.554Z,9.80
2023-05-24T03:02:34.069Z,9.80
2023-05-24T03:05:01.449Z,9.80
2023-05-24T03:07:29.687Z,9.80
2023-05-24T03:09:56.665Z,9.80
2023-05-24T03:12:23.684Z,9.80
2023-05-24T03:14:51.188Z,9.80
2023-05-24T03:17:18.265Z,9.70
2023-05-24T03:19:45.411Z,9.70
2023-05-24T03:22:13.297Z,9.90
2023-05-24T03:24:40.558Z,9.70
2023-05-24T03:27:08.751Z,9.60
2023-05-24T03:29:35.986Z,9.60
2023-05-24T03:32:03.513Z,9.60
2023-05-24T03:34:31.441Z,10.00
2023-05-24T03:36:58.614Z,9.70
2023-05-24T03:39:25.925Z,9.60
2023-05-24T03:42:05.770Z,9.60
2023-05-24T03:44:32.911Z,9.60
2023-05-24T03:47:00.017Z,9.60
2023-05-24T03:49:27.084Z,9.60
2023-05-24T03:51:55.439Z,9.60
2023-05-24T03:54:22.488Z,9.60
2023-05-24T03:56:50.617Z,9.60
2023-05-24T03:59:17.879Z,9.60
2023-05-24T04:01:45.069Z,9.60
2023-05-24T04:04:12.227Z,9.60
2023-05-24T04:06:41.844Z,9.70
2023-05-24T04:09:10.037Z,9.90
2023-05-24T04:11:37.145Z,9.70
2023-05-24T04:14:04.202Z,9.70
2023-05-24T04:16:34.227Z,9.70
2023-05-24T04:19:04.635Z,9.70
2023-05-24T04:21:33.266Z,9.80
2023-05-24T04:24:01.612Z,9.90
2023-05-24T04:26:29.738Z,10.00
2023-05-24T04:28:57.874Z,10.10
2023-05-24T04:31:26.183Z,10.30
2023-05-24T04:33:53.319Z,10.40
2023-05-24T04:36:22.905Z,10.60
2023-05-24T04:38:50.374Z,10.70
2023-05-24T04:41:17.492Z,10.90
2023-05-24T04:43:44.902Z,11.10
2023-05-24T04:46:13.003Z,11.20
2023-05-24T04:48:40.663Z,11.40
2023-05-24T04:51:07.708Z,11.70
2023-05-24T04:53:34.676Z,11.80
2023-05-24T04:56:01.676Z,12.00
2023-05-24T04:58:28.817Z,12.20
2023-05-24T05:00:55.918Z,12.40
2023-05-24T05:03:23.057Z,12.70
2023-05-24T05:05:50.169Z,12.80
2023-05-24T05:08:17.176Z,13.10
2023-05-24T05:10:44.631Z,13.30
2023-05-24T05:13:11.798Z,13.50
2023-05-24T05:15:39.615Z,13.70
2023-05-24T05:18:07.597Z,13.90
2023-05-24T05:20:34.829Z,14.20
2023-05-24T05:23:01.959Z,14.40
2023-05-24T05:25:30.899Z,14.50
2023-05-24T05:27:58.080Z,14.80
2023-05-24T05:30:25.149Z,15.00
2023-05-24T05:32:52.926Z,15.10
2023-05-24T05:35:20.487Z,15.40
2023-05-24T05:37:47.579Z,15.50
2023-05-24T05:40:14.640Z,15.70
2023-05-24T05:42:41.788Z,15.80
2023-05-24T05:45:09.298Z,15.90
2023-05-24T05:47:36.513Z,16.20
2023-05-24T05:50:03.763Z,16.30
2023-05-24T05:52:31.394Z,16.50
2023-05-24T05:54:59.290Z,16.60
2023-05-24T05:57:26.891Z,16.70
2023-05-24T05:59:53.985Z,16.80
2023-05-24T06:02:22.682Z,17.00
2023-05-24T06:04:50.405Z,17.30
2023-05-24T06:07:17.428Z,17.30
2023-05-24T06:09:44.480Z,17.50
2023-05-24T06:12:11.588Z,17.60
2023-05-24T06:14:38.687Z,17.80
2023-05-24T06:17:06.758Z,17.90
2023-05-24T06:19:33.835Z,18.00
2023-05-24T06:22:01.293Z,18.00
2023-05-24T06:24:28.559Z,18.20
2023-05-24T06:26:55.890Z,18.30
2023-05-24T06:29:25.076Z,18.50
2023-05-24T06:31:52.421Z,18.40
2023-05-24T06:34:23.089Z,18.60
2023-05-24T06:36:51.507Z,18.50
2023-05-24T06:39:19.520Z,18.50
2023-05-24T06:41:47.077Z,18.60
2023-05-24T06:44:14.659Z,18.60
2023-05-24T06:46:41.911Z,18.70
2023-05-24T06:49:09.050Z,18.80
2023-05-24T06:51:37.942Z,18.80
2023-05-24T06:54:04.980Z,19.00
2023-05-24T06:56:32.105Z,19.20
2023-05-24T06:58:59.936Z,19.40
2023-05-24T07:01:27.568Z,19.60
2023-05-24T07:03:55.078Z,19.80
2023-05-24T07:06:22.271Z,20.10
2023-05-24T07:08:49.233Z,20.30
2023-05-24T07:11:16.542Z,20.60
2023-05-24T07:13:43.607Z,20.90
2023-05-24T07:16:11.673Z,21.20
2023-05-24T07:18:38.803Z,21.40
2023-05-24T07:21:05.932Z,21.60
2023-05-24T07:23:32.962Z,21.80
2023-05-24T07:26:00.192Z,22.10
2023-05-24T07:28:27.544Z,22.30
2023-05-24T07:30:54.536Z,22.50
2023-05-24T07:33:21.890Z,22.70
2023-05-24T07:35:51.634Z,22.70
2023-05-24T07:38:18.971Z,22.60
2023-05-24T07:40:46.137Z,22.60
2023-05-24T07:43:13.204Z,22.50
2023-05-24T07:45:40.352Z,22.40
2023-05-24T07:48:07.942Z,22.50
2023-05-24T07:50:35.048Z,22.60
2023-05-24T07:53:02.652Z,22.70
2023-05-24T07:55:29.599Z,22.70
2023-05-24T07:57:56.770Z,22.70
2023-05-24T08:00:23.822Z,22.60
2023-05-24T08:02:50.838Z,22.40
2023-05-24T08:05:18.184Z,22.20
2023-05-24T08:07:45.671Z,22.00
2023-05-24T08:10:13.749Z,21.80
2023-05-24T08:12:42.051Z,21.60
2023-05-24T08:15:10.263Z,21.50
2023-05-24T08:17:39.441Z,21.40
2023-05-24T08:20:10.428Z,21.30
2023-05-24T08:22:37.682Z,21.40
2023-05-24T08:25:06.658Z,21.80
2023-05-24T08:27:33.769Z,22.00
2023-05-24T08:30:01.128Z,22.60
2023-05-24T08:32:29.529Z,23.20
2023-05-24T08:35:06.631Z,23.60
2023-05-24T08:37:38.460Z,24.20
2023-05-24T08:40:07.646Z,24.70
2023-05-24T08:42:38.408Z,25.40
2023-05-24T08:45:11.994Z,25.90
2023-05-24T08:47:40.572Z,26.20
2023-05-24T08:50:08.757Z,26.20
2023-05-24T08:52:36.570Z,26.10
2023-05-24T08:55:08.508Z,26.10
2023-05-24T08:57:39.933Z,26.10
2023-05-24T09:00:12.664Z,26.40
2023-05-24T09:02:42.667Z,26.70
2023-05-24T09:05:14.356Z,27.20
2023-05-24T09:07:44.920Z,27.60
2023-05-24T09:10:12.320Z,27.70
2023-05-24T09:12:44.553Z,27.70
2023-05-24T09:15:12.345Z,27.40
2023-05-24T09:17:40.649Z,27.10
2023-05-24T09:20:10.268Z,26.70
2023-05-24T09:22:41.310Z,26.30
2023-05-24T09:25:12.952Z,25.80
2023-05-24T09:27:40.126Z,25.40
2023-05-24T09:30:12.554Z,24.80
2023-05-24T09:32:41.074Z,24.40
2023-05-24T09:35:10.450Z,23.90
2023-05-24T09:37:41.869Z,23.50
2023-05-24T09:40:22.566Z,23.20
2023-05-24T09:43:02.132Z,22.90
2023-05-24T09:45:29.191Z,22.70
2023-05-24T09:47:56.705Z,22.50
2023-05-24T09:50:23.704Z,22.40
2023-05-24T09:52:51.860Z,22.20
2023-05-24T09:55:20.726Z,22.10
2023-05-24T09:58:02.305Z,21.90
2023-05-24T10:00:29.561Z,21.50
2023-05-24T10:03:07.237Z,21.50
2023-05-24T10:05:36.405Z,21.20
2023-05-24T10:08:07.001Z,20.90
2023-05-24T10:10:34.349Z,20.70
2023-05-24T10:13:02.699Z,20.50
2023-05-24T10:15:30.833Z,20.20
2023-05-24T10:17:59.899Z,19.90
2023-05-24T10:20:27.158Z,19.80
2023-05-24T10:23:01.725Z,19.70
2023-05-24T10:25:32.958Z,19.60
2023-05-24T10:28:08.722Z,19.70
2023-05-24T10:31:00.155Z,19.70
2023-05-24T10:33:27.794Z,19.80
2023-05-24T10:35:56.664Z,19.90
2023-05-24T10:38:26.735Z,20.10
2023-05-24T10:40:53.902Z,20.40
2023-05-24T10:43:22.161Z,20.60
2023-05-24T10:45:51.145Z,20.70
2023-05-24T10:48:24.211Z,20.80
2023-05-24T10:50:51.140Z,20.70
2023-05-24T10:53:23.553Z,20.70
2023-05-24T10:56:04.064Z,20.70
2023-05-24T10:58:59.844Z,20.40
2023-05-24T11:01:29.556Z,20.50
2023-05-24T11:04:16.911Z,20.40
2023-05-24T11:06:55.637Z,20.30
2023-05-24T11:09:24.331Z,20.10
2023-05-24T11:11:56.767Z,20.10
2023-05-24T11:14:29.603Z,20.00
2023-05-24T11:16:58.276Z,19.90
2023-05-24T11:19:47.124Z,19.80
2023-05-24T11:22:15.192Z,19.80
2023-05-24T11:24:42.885Z,19.80
2023-05-24T11:27:13.594Z,19.80
2023-05-24T11:29:45.986Z,19.80
2023-05-24T11:32:18.725Z,19.90
2023-05-24T11:34:50.973Z,19.80
2023-05-24T11:37:18.840Z,19.80
2023-05-24T11:39:53.001Z,19.90
2023-05-24T11:42:22.529Z,20.00
2023-05-24T11:44:50.496Z,20.00
2023-05-24T11:47:20.822Z,20.30
2023-05-24T11:49:51.521Z,20.10
2023-05-24T11:52:18.531Z,20.10
2023-05-24T11:54:45.605Z,20.20
2023-05-24T11:57:12.862Z,20.00
2023-05-24T11:59:41.808Z,19.90
2023-05-24T12:02:09.098Z,19.80
2023-05-24T12:04:36.382Z,20.00
2023-05-24T12:07:03.716Z,19.70
2023-05-24T12:09:30.752Z,19.70
2023-05-24T12:11:58.431Z,19.60
2023-05-24T12:14:33.305Z,19.60
2023-05-24T12:17:01.241Z,19.60
2023-05-24T12:19:36.946Z,19.60
2023-05-24T12:22:07.250Z,19.60
2023-05-24T12:24:35.196Z,19.80
2023-05-24T12:27:07.570Z,19.90
2023-05-24T12:29:40.767Z,20.10
2023-05-24T12:32:14.633Z,20.30
2023-05-24T12:34:43.711Z,20.60
2023-05-24T12:37:15.425Z,20.80
2023-05-24T12:39:44.289Z,21.10
2023-05-24T12:42:16.061Z,21.30
2023-05-24T12:44:44.958Z,21.60
2023-05-24T12:47:12.156Z,21.70
2023-05-24T12:49:39.189Z,22.00
2023-05-24T12:52:06.648Z,22.20
2023-05-24T12:54:34.005Z,22.50
2023-05-24T12:57:02.646Z,22.60
2023-05-24T12:59:30.048Z,22.70
2023-05-24T13:01:57.744Z,22.80
2023-05-24T13:04:30.360Z,22.80
2023-05-24T13:06:57.449Z,22.80
2023-05-24T13:09:25.918Z,22.70
2023-05-24T13:11:54.134Z,22.50
2023-05-24T13:14:21.607Z,22.40
2023-05-24T13:16:49.023Z,22.30
2023-05-24T13:19:17.074Z,22.10
2023-05-24T13:21:44.190Z,22.00
2023-05-24T13:24:14.644Z,21.80
2023-05-24T13:26:41.938Z,21.70
2023-05-24T13:31:40.718Z,21.50
2023-05-24T13:34:10.681Z,21.40
2023-05-24T13:36:40.770Z,21.30
2023-05-24T13:41:41.109Z,21.50
2023-05-24T13:44:08.702Z,21.50
2023-05-24T13:46:36.381Z,21.50
2023-05-24T13:49:04.421Z,21.60
2023-05-24T13:51:32.804Z,21.70
2023-05-24T13:54:00.314Z,21.60
2023-05-24T13:56:32.561Z,21.70
2023-05-24T13:59:02.409Z,21.60
2023-05-24T14:01:30.349Z,21.50
2023-05-24T14:03:57.511Z,21.50
2023-05-24T14:06:24.702Z,21.40
2023-05-24T14:08:52.213Z,21.40
2023-05-24T14:11:19.792Z,21.20
2023-05-24T14:16:19.551Z,21.10
2023-05-24T14:18:48.979Z,21.30
2023-05-24T14:21:17.831Z,21.30
2023-05-24T14:23:44.929Z,21.20
2023-05-24T14:26:12.014Z,21.10
2023-05-24T14:28:39.235Z,21.10
2023-05-24T14:31:06.449Z,21.10
2023-05-24T14:33:33.648Z,21.10
2023-05-24T14:36:01.689Z,21.10
2023-05-24T14:38:30.303Z,21.10
2023-05-24T14:41:00.429Z,21.00
2023-05-24T14:43:27.506Z,21.00
2023-05-24T14:45:54.603Z,20.80
2023-05-24T14:48:21.723Z,21.00
2023-05-24T14:50:48.775Z,21.00
2023-05-24T14:53:15.841Z,21.00
2023-05-24T14:55:44.071Z,21.00
2023-05-24T14:58:11.993Z,20.90
2023-05-24T15:00:42.947Z,20.90
2023-05-24T15:03:12.565Z,20.90
2023-05-24T15:05:41.589Z,20.80
2023-05-24T15:08:10.878Z,20.90
2023-05-24T15:10:39.188Z,20.70
2023-05-24T15:13:06.668Z,20.70
2023-05-24T15:15:33.718Z,20.70
2023-05-24T15:18:00.917Z,20.80
2023-05-24T15:20:28.049Z,20.80
2023-05-24T15:22:55.446Z,20.70
2023-05-24T15:25:22.715Z,20.70
2023-05-24T15:27:49.715Z,20.70
2023-05-24T15:30:19.931Z,20.70
2023-05-24T15:32:47.511Z,20.70
2023-05-24T15:35:14.590Z,20.60
2023-05-24T15:37:43.022Z,20.50
2023-05-24T15:40:11.343Z,20.50
2023-05-24T15:42:39.215Z,20.50
2023-05-24T15:45:07.486Z,20.40
2023-05-24T15:47:40.119Z,20.50
2023-05-24T15:50:08.716Z,20.40
2023-05-24T15:52:36.272Z,20.50
2023-05-24T15:55:03.784Z,20.50
2023-05-24T15:57:31.695Z,20.50
2023-05-24T15:59:58.907Z,20.50
2023-05-24T16:02:26.299Z,20.50
2023-05-24T16:04:54.157Z,20.50
2023-05-24T16:07:21.238Z,20.50
2023-05-24T16:09:50.725Z,20.50
2023-05-24T16:12:18.409Z,20.50
2023-05-24T16:14:45.516Z,20.70
2023-05-24T16:17:13.091Z,20.40
2023-05-24T16:19:40.489Z,20.50
2023-05-24T16:22:08.072Z,20.50
2023-05-24T16:24:35.097Z,20.40
2023-05-24T16:27:02.151Z,20.40
2023-05-24T16:29:29.408Z,20.40
2023-05-24T16:31:56.429Z,20.40
2023-05-24T16:34:24.711Z,20.40
2023-05-24T16:36:52.133Z,20.30
2023-05-24T16:39:19.192Z,20.20
2023-05-24T16:41:46.267Z,20.20
2023-05-24T16:44:17.818Z,20.00
2023-05-24T16:46:45.987Z,20.10
2023-05-24T16:49:13.352Z,20.10
2023-05-24T16:51:40.788Z,20.10
2023-05-24T16:54:08.865Z,20.20
2023-05-24T16:56:37.539Z,20.00
2023-05-24T16:59:05.296Z,20.00
2023-05-24T17:01:32.429Z,20.00
2023-05-24T17:03:59.831Z,19.90
2023-05-24T17:06:27.044Z,19.90
2023-05-24T17:08:54.164Z,19.90
2023-05-24T17:11:22.839Z,19.80
2023-05-24T17:13:51.370Z,19.70
2023-05-24T17:16:18.740Z,19.60
2023-05-24T17:18:45.986Z,19.50
2023-05-24T17:21:12.989Z,19.40
2023-05-24T17:23:40.075Z,19.30
2023-05-24T17:26:08.216Z,19.20
2023-05-24T17:28:36.358Z,19.10
2023-05-24T17:31:04.252Z,19.00
2023-05-24T17:33:32.112Z,18.90
2023-05-24T17:36:02.697Z,18.80
2023-05-24T17:38:33.028Z,18.60
2023-05-24T17:41:00.331Z,19.00
2023-05-24T17:43:34.373Z,18.60
2023-05-24T17:46:04.045Z,18.60
2023-05-24T17:48:55.589Z,18.50
2023-05-24T17:51:24.476Z,18.40
2023-05-24T17:53:51.559Z,18.30
2023-05-24T17:56:18.784Z,18.20
2023-05-24T17:58:47.595Z,18.10
2023-05-24T18:01:15.226Z,18.10
2023-05-24T18:03:42.767Z,18.10
2023-05-24T18:06:10.121Z,17.80
2023-05-24T18:08:43.047Z,17.90
2023-05-24T18:11:12.615Z,17.70
2023-05-24T18:13:42.508Z,17.80
2023-05-24T18:16:11.374Z,17.70
2023-05-24T18:18:39.352Z,17.70
2023-05-24T18:21:09.546Z,17.70
2023-05-24T18:23:40.230Z,17.70
2023-05-24T18:26:09.850Z,17.60
2023-05-24T18:28:38.293Z,17.60
2023-05-24T18:31:10.546Z,17.60
2023-05-24T18:33:38.123Z,17.60
2023-05-24T18:36:06.385Z,17.60
2023-05-24T18:38:37.219Z,17.60
2023-05-24T18:41:06.330Z,17.60
2023-05-24T18:43:33.889Z,17.50
2023-05-24T18:46:04.566Z,17.50
2023-05-24T18:48:51.897Z,17.50
2023-05-24T18:51:26.244Z,17.40
2023-05-24T18:53:55.042Z,17.40
2023-05-24T18:56:48.396Z,17.30
2023-05-24T18:59:16.840Z,17.20
2023-05-24T19:01:44.631Z,17.20
2023-05-24T19:04:11.855Z,17.10
2023-05-24T19:06:39.226Z,17.10
2023-05-24T19:09:06.806Z,17.10
2023-05-24T19:11:33.881Z,17.10
2023-05-24T19:14:00.907Z,17.00
2023-05-24T19:16:28.351Z,17.00
2023-05-24T19:18:56.609Z,17.10
2023-05-24T19:21:25.322Z,16.90
2023-05-24T19:23:53.482Z,16.90
2023-05-24T19:26:21.018Z,16.80
2023-05-24T19:28:51.613Z,16.80
2023-05-24T19:31:19.293Z,16.80
2023-05-24T19:33:59.893Z,16.70
2023-05-24T19:36:30.732Z,16.70
2023-05-24T19:38:57.828Z,16.60
2023-05-24T19:41:25.506Z,16.60
2023-05-24T19:43:55.636Z,16.80
2023-05-24T19:46:24.568Z,16.50
2023-05-24T19:48:51.816Z,16.50
2023-05-24T19:51:19.752Z,16.40
2023-05-24T19:53:46.849Z,16.40
2023-05-24T19:56:13.858Z,16.30
2023-05-24T19:58:41.006Z,16.30
2023-05-24T20:01:08.217Z,16.30
2023-05-24T20:03:35.309Z,16.20
2023-05-24T20:06:03.746Z,16.20
2023-05-24T20:08:31.130Z,16.10
2023-05-24T20:10:58.134Z,16.10
2023-05-24T20:13:25.276Z,16.00
2023-05-24T20:15:55.003Z,16.00
2023-05-24T20:18:23.075Z,16.00
2023-05-24T20:20:50.285Z,15.90
2023-05-24T20:23:17.339Z,15.90
2023-05-24T20:25:44.710Z,15.90
2023-05-24T20:28:25.712Z,15.80
2023-05-24T20:30:57.080Z,15.70
2023-05-24T20:33:24.195Z,15.70
2023-05-24T20:35:52.973Z,15.70
2023-05-24T20:38:20.629Z,15.60
2023-05-24T20:40:47.635Z,15.50
2023-05-24T20:43:14.743Z,15.50
2023-05-24T20:45:41.995Z,15.40
2023-05-24T20:48:09.264Z,15.30
2023-05-24T20:50:36.365Z,15.30
2023-05-24T20:53:03.432Z,15.40
2023-05-24T20:55:31.439Z,15.20
2023-05-24T20:57:58.450Z,15.10
2023-05-24T21:00:25.554Z,15.10
2023-05-24T21:02:52.792Z,15.10
2023-05-24T21:05:19.982Z,15.00
2023-05-24T21:07:47.099Z,14.90
2023-05-24T21:10:18.685Z,14.90
2023-05-24T21:12:47.905Z,14.90
2023-05-24T21:15:15.241Z,15.00
2023-05-24T21:17:42.389Z,14.70
2023-05-24T21:20:10.050Z,14.70
2023-05-24T21:22:37.099Z,14.70
2023-05-24T21:25:04.889Z,14.60
2023-05-24T21:27:31.919Z,14.50
2023-05-24T21:29:59.166Z,14.50
2023-05-24T21:32:26.213Z,14.40
2023-05-24T21:34:53.284Z,14.30
2023-05-24T21:37:20.456Z,14.30
2023-05-24T21:39:47.957Z,14.20
2023-05-24T21:42:15.419Z,14.20
2023-05-24T21:44:42.685Z,14.20
2023-05-24T21:47:09.765Z,14.10
2023-05-24T21:49:36.996Z,14.10
2023-05-24T21:52:04.394Z,14.10
2023-05-24T21:54:31.393Z,14.00
2023-05-24T21:56:58.444Z,14.00
2023-05-24T21:59:25.471Z,14.00
2023-05-24T22:01:52.671Z,14.00
2023-05-24T22:04:38.380Z,14.00
2023-05-24T22:07:06.827Z,13.90
2023-05-24T22:09:34.037Z,13.90
2023-05-24T22:12:01.697Z,13.90
2023-05-24T22:14:29.193Z,13.80
2023-05-24T22:16:56.432Z,13.80
2023-05-24T22:19:38.999Z,13.80
2023-05-24T22:22:09.970Z,13.70
2023-05-24T22:24:37.102Z,13.70
2023-05-24T22:27:05.110Z,13.70
2023-05-24T22:29:32.169Z,13.60
2023-05-24T22:31:59.247Z,13.60
2023-05-24T22:34:29.417Z,13.60
2023-05-24T22:36:57.654Z,13.60
2023-05-24T22:39:25.159Z,13.60
2023-05-24T22:41:53.321Z,13.50
2023-05-24T22:44:20.782Z,13.50
2023-05-24T22:46:49.765Z,13.50
2023-05-24T22:49:19.353Z,13.50
2023-05-24T22:51:48.733Z,13.80
2023-05-24T22:54:16.615Z,13.90
2023-05-24T22:56:44.172Z,13.60
2023-05-24T22:59:11.526Z,13.60
2023-05-24T23:01:39.012Z,13.70
2023-05-24T23:04:19.642Z,13.60
2023-05-24T23:06:52.237Z,13.60
2023-05-24T23:09:29.005Z,13.60
2023-05-24T23:11:58.269Z,13.60
2023-05-24T23:14:25.558Z,13.60
2023-05-24T23:16:52.605Z,13.50
2023-05-24T23:19:19.700Z,13.50
2023-05-24T23:21:46.807Z,13.50
2023-05-24T23:24:16.908Z,13.50
2023-05-24T23:26:44.045Z,13.40
2023-05-24T23:29:11.311Z,13.40
2023-05-24T23:31:38.562Z,13.30
2023-05-24T23:34:05.783Z,13.30
2023-05-24T23:36:33.515Z,13.30
2023-05-24T23:39:00.647Z,13.30
2023-05-24T23:41:27.844Z,13.30
2023-05-24T23:43:54.976Z,13.50
2023-05-24T23:46:22.140Z,13.20
2023-05-24T23:48:49.463Z,13.20
2023-05-24T23:51:16.718Z,13.20
2023-05-24T23:53:43.967Z,13.10
2023-05-24T23:56:11.253Z,13.10
2023-05-24T23:58:38.374Z,13.10
